sensor_id;sensor_type;location;lat;lon;timestamp;P1;durP1;ratioP1;P2;durP2;ratioP2
64887;SDS011;51386;53.082;8.816;2024-02-14T00:00:32;3.40;;;3.10;;
64887;SDS011;51386;53.082;8.816;2024-02-14T00:03:01;4.93;;;3.73;;
64887;SDS011;51386;53.082;8.816;2024-02-14T00:05:30;5.17;;;3.33;;
64887;SDS011;51386;53.082;8.816;2024-02-14T00:07:59;4.40;;;2.77;;
64887;SDS011;51386;53.082;8.816;2024-02-14T00:10:27;4.13;;;3.50;;
64887;SDS011;51386;53.082;8.816;2024-02-14T00:12:55;3.90;;;3.50;;
64887;SDS011;51386;53.082;8.816;2024-02-14T00:15:24;3.97;;;3.57;;
64887;SDS011;51386;53.082;8.816;2024-02-14T00:17:53;7.17;;;4.10;;
64887;SDS011;51386;53.082;8.816;2024-02-14T00:20:21;3.23;;;2.80;;
64887;SDS011;51386;53.082;8.816;2024-02-14T00:22:58;6.00;;;3.67;;
64887;SDS011;51386;53.082;8.816;2024-02-14T00:25:27;4.93;;;3.33;;
64887;SDS011;51386;53.082;8.816;2024-02-14T00:27:58;4.33;;;3.13;;
64887;SDS011;51386;53.082;8.816;2024-02-14T00:30:31;7.10;;;3.23;;
64887;SDS011;51386;53.082;8.816;2024-02-14T00:33:22;4.27;;;3.63;;
64887;SDS011;51386;53.082;8.816;2024-02-14T00:35:51;6.37;;;4.03;;
64887;SDS011;51386;53.082;8.816;2024-02-14T00:38:20;5.07;;;3.37;;
64887;SDS011;51386;53.082;8.816;2024-02-14T00:40:49;3.70;;;2.90;;
64887;SDS011;51386;53.082;8.816;2024-02-14T00:43:17;3.93;;;2.83;;
64887;SDS011;51386;53.082;8.816;2024-02-14T00:45:45;3.67;;;3.10;;
64887;SDS011;51386;53.082;8.816;2024-02-14T00:48:15;5.27;;;3.40;;
64887;SDS011;51386;53.082;8.816;2024-02-14T00:50:44;5.37;;;3.43;;
64887;SDS011;51386;53.082;8.816;2024-02-14T00:53:12;6.93;;;3.53;;
64887;SDS011;51386;53.082;8.816;2024-02-14T00:55:41;6.07;;;3.47;;
64887;SDS011;51386;53.082;8.816;2024-02-14T00:58:09;7.10;;;3.30;;
64887;SDS011;51386;53.082;8.816;2024-02-14T01:00:38;5.70;;;3.30;;
64887;SDS011;51386;53.082;8.816;2024-02-14T01:03:06;4.83;;;3.50;;
64887;SDS011;51386;53.082;8.816;2024-02-14T01:05:35;4.17;;;3.23;;
64887;SDS011;51386;53.082;8.816;2024-02-14T01:08:04;5.43;;;3.30;;
64887;SDS011;51386;53.082;8.816;2024-02-14T01:10:33;8.70;;;3.97;;
64887;SDS011;51386;53.082;8.816;2024-02-14T01:13:01;4.27;;;3.20;;
64887;SDS011;51386;53.082;8.816;2024-02-14T01:15:29;8.50;;;3.73;;
64887;SDS011;51386;53.082;8.816;2024-02-14T01:17:58;5.60;;;3.30;;
64887;SDS011;51386;53.082;8.816;2024-02-14T01:20:27;3.57;;;3.27;;
64887;SDS011;51386;53.082;8.816;2024-02-14T01:22:55;4.63;;;3.77;;
64887;SDS011;51386;53.082;8.816;2024-02-14T01:25:26;3.43;;;3.13;;
64887;SDS011;51386;53.082;8.816;2024-02-14T01:27:54;4.07;;;3.50;;
64887;SDS011;51386;53.082;8.816;2024-02-14T01:30:23;4.57;;;3.37;;
64887;SDS011;51386;53.082;8.816;2024-02-14T01:32:52;5.97;;;3.60;;
64887;SDS011;51386;53.082;8.816;2024-02-14T01:35:22;4.13;;;3.73;;
64887;SDS011;51386;53.082;8.816;2024-02-14T01:37:50;5.90;;;3.70;;
64887;SDS011;51386;53.082;8.816;2024-02-14T01:40:20;4.60;;;3.70;;
64887;SDS011;51386;53.082;8.816;2024-02-14T01:42:54;4.77;;;4.13;;
64887;SDS011;51386;53.082;8.816;2024-02-14T01:45:23;6.70;;;4.00;;
64887;SDS011;51386;53.082;8.816;2024-02-14T01:47:59;5.40;;;4.10;;
64887;SDS011;51386;53.082;8.816;2024-02-14T01:50:29;4.90;;;3.53;;
64887;SDS011;51386;53.082;8.816;2024-02-14T01:52:59;6.13;;;4.40;;
64887;SDS011;51386;53.082;8.816;2024-02-14T01:55:29;8.90;;;4.03;;
64887;SDS011;51386;53.082;8.816;2024-02-14T01:57:58;5.07;;;3.93;;
64887;SDS011;51386;53.082;8.816;2024-02-14T02:00:26;4.80;;;3.70;;
64887;SDS011;51386;53.082;8.816;2024-02-14T02:02:55;7.87;;;3.90;;
64887;SDS011;51386;53.082;8.816;2024-02-14T02:05:24;7.00;;;4.03;;
64887;SDS011;51386;53.082;8.816;2024-02-14T02:07:53;5.27;;;4.33;;
64887;SDS011;51386;53.082;8.816;2024-02-14T02:10:22;4.60;;;4.20;;
64887;SDS011;51386;53.082;8.816;2024-02-14T02:13:13;4.77;;;3.90;;
64887;SDS011;51386;53.082;8.816;2024-02-14T02:16:03;4.10;;;3.70;;
64887;SDS011;51386;53.082;8.816;2024-02-14T02:18:52;6.40;;;4.03;;
64887;SDS011;51386;53.082;8.816;2024-02-14T02:21:42;4.70;;;4.13;;
64887;SDS011;51386;53.082;8.816;2024-02-14T02:24:13;5.50;;;4.43;;
64887;SDS011;51386;53.082;8.816;2024-02-14T02:26:42;5.50;;;3.97;;
64887;SDS011;51386;53.082;8.816;2024-02-14T02:29:31;7.23;;;4.63;;
64887;SDS011;51386;53.082;8.816;2024-02-14T02:32:00;7.97;;;5.00;;
64887;SDS011;51386;53.082;8.816;2024-02-14T02:34:28;6.30;;;4.30;;
64887;SDS011;51386;53.082;8.816;2024-02-14T02:36:57;7.20;;;4.73;;
64887;SDS011;51386;53.082;8.816;2024-02-14T02:39:44;8.47;;;4.67;;
64887;SDS011;51386;53.082;8.816;2024-02-14T02:42:32;7.13;;;4.60;;
64887;SDS011;51386;53.082;8.816;2024-02-14T02:45:22;6.60;;;4.90;;
64887;SDS011;51386;53.082;8.816;2024-02-14T02:48:10;6.17;;;4.40;;
64887;SDS011;51386;53.082;8.816;2024-02-14T02:50:55;4.97;;;4.50;;
64887;SDS011;51386;53.082;8.816;2024-02-14T02:53:42;7.20;;;4.90;;
64887;SDS011;51386;53.082;8.816;2024-02-14T02:56:31;5.73;;;4.87;;
64887;SDS011;51386;53.082;8.816;2024-02-14T02:59:01;6.10;;;5.47;;
64887;SDS011;51386;53.082;8.816;2024-02-14T03:01:36;9.37;;;5.03;;
64887;SDS011;51386;53.082;8.816;2024-02-14T03:04:25;6.70;;;4.77;;
64887;SDS011;51386;53.082;8.816;2024-02-14T03:07:33;6.60;;;4.47;;
64887;SDS011;51386;53.082;8.816;2024-02-14T03:10:20;8.17;;;5.70;;
64887;SDS011;51386;53.082;8.816;2024-02-14T03:13:09;5.77;;;4.57;;
64887;SDS011;51386;53.082;8.816;2024-02-14T03:15:59;5.67;;;5.13;;
64887;SDS011;51386;53.082;8.816;2024-02-14T03:18:27;8.10;;;5.70;;
64887;SDS011;51386;53.082;8.816;2024-02-14T03:20:56;8.67;;;6.10;;
64887;SDS011;51386;53.082;8.816;2024-02-14T03:23:24;8.13;;;5.80;;
64887;SDS011;51386;53.082;8.816;2024-02-14T03:25:53;8.53;;;6.20;;
64887;SDS011;51386;53.082;8.816;2024-02-14T03:28:21;7.73;;;5.97;;
64887;SDS011;51386;53.082;8.816;2024-02-14T03:30:50;6.77;;;6.07;;
64887;SDS011;51386;53.082;8.816;2024-02-14T03:33:19;8.27;;;5.50;;
64887;SDS011;51386;53.082;8.816;2024-02-14T03:35:48;9.33;;;5.70;;
64887;SDS011;51386;53.082;8.816;2024-02-14T03:38:28;7.40;;;6.43;;
64887;SDS011;51386;53.082;8.816;2024-02-14T03:40:58;7.00;;;6.30;;
64887;SDS011;51386;53.082;8.816;2024-02-14T03:43:27;7.37;;;5.80;;
64887;SDS011;51386;53.082;8.816;2024-02-14T03:45:55;6.60;;;6.00;;
64887;SDS011;51386;53.082;8.816;2024-02-14T03:48:24;8.70;;;7.13;;
64887;SDS011;51386;53.082;8.816;2024-02-14T03:50:52;6.73;;;6.10;;
64887;SDS011;51386;53.082;8.816;2024-02-14T03:53:21;10.30;;;5.97;;
64887;SDS011;51386;53.082;8.816;2024-02-14T03:55:50;12.07;;;6.97;;
64887;SDS011;51386;53.082;8.816;2024-02-14T03:58:20;6.87;;;6.20;;
64887;SDS011;51386;53.082;8.816;2024-02-14T04:00:51;7.47;;;6.70;;
64887;SDS011;51386;53.082;8.816;2024-02-14T04:03:20;7.10;;;6.40;;
64887;SDS011;51386;53.082;8.816;2024-02-14T04:05:48;7.33;;;6.23;;
64887;SDS011;51386;53.082;8.816;2024-02-14T04:08:17;7.20;;;6.50;;
64887;SDS011;51386;53.082;8.816;2024-02-14T04:10:45;7.97;;;6.90;;
64887;SDS011;51386;53.082;8.816;2024-02-14T04:13:14;7.33;;;6.03;;
64887;SDS011;51386;53.082;8.816;2024-02-14T04:15:42;10.00;;;7.20;;
64887;SDS011;51386;53.082;8.816;2024-02-14T04:18:13;9.00;;;7.00;;
64887;SDS011;51386;53.082;8.816;2024-02-14T04:20:46;8.13;;;7.00;;
64887;SDS011;51386;53.082;8.816;2024-02-14T04:23:14;10.67;;;7.53;;
64887;SDS011;51386;53.082;8.816;2024-02-14T04:25:42;7.90;;;7.03;;
64887;SDS011;51386;53.082;8.816;2024-02-14T04:28:11;6.97;;;6.27;;
64887;SDS011;51386;53.082;8.816;2024-02-14T04:30:39;9.17;;;7.53;;
64887;SDS011;51386;53.082;8.816;2024-02-14T04:33:16;9.33;;;6.90;;
64887;SDS011;51386;53.082;8.816;2024-02-14T04:35:45;8.57;;;6.87;;
64887;SDS011;51386;53.082;8.816;2024-02-14T04:38:13;10.00;;;7.03;;
64887;SDS011;51386;53.082;8.816;2024-02-14T04:40:42;8.70;;;6.90;;
64887;SDS011;51386;53.082;8.816;2024-02-14T04:43:10;8.03;;;7.23;;
64887;SDS011;51386;53.082;8.816;2024-02-14T04:45:39;9.43;;;6.70;;
64887;SDS011;51386;53.082;8.816;2024-02-14T04:48:09;8.50;;;6.87;;
64887;SDS011;51386;53.082;8.816;2024-02-14T04:50:38;8.33;;;6.97;;
64887;SDS011;51386;53.082;8.816;2024-02-14T04:53:07;7.60;;;6.90;;
64887;SDS011;51386;53.082;8.816;2024-02-14T04:55:35;8.60;;;7.67;;
64887;SDS011;51386;53.082;8.816;2024-02-14T04:58:04;7.53;;;6.67;;
64887;SDS011;51386;53.082;8.816;2024-02-14T05:00:33;8.10;;;7.40;;
64887;SDS011;51386;53.082;8.816;2024-02-14T05:03:01;8.30;;;7.10;;
64887;SDS011;51386;53.082;8.816;2024-02-14T05:05:31;8.70;;;7.80;;
64887;SDS011;51386;53.082;8.816;2024-02-14T05:08:01;7.87;;;7.07;;
64887;SDS011;51386;53.082;8.816;2024-02-14T05:10:30;8.67;;;7.53;;
64887;SDS011;51386;53.082;8.816;2024-02-14T05:12:59;9.43;;;7.30;;
64887;SDS011;51386;53.082;8.816;2024-02-14T05:15:28;9.87;;;8.13;;
64887;SDS011;51386;53.082;8.816;2024-02-14T05:17:57;8.87;;;7.93;;
64887;SDS011;51386;53.082;8.816;2024-02-14T05:20:25;9.50;;;7.07;;
64887;SDS011;51386;53.082;8.816;2024-02-14T05:22:54;10.67;;;8.07;;
64887;SDS011;51386;53.082;8.816;2024-02-14T05:25:22;8.43;;;7.23;;
64887;SDS011;51386;53.082;8.816;2024-02-14T05:27:57;11.20;;;7.73;;
64887;SDS011;51386;53.082;8.816;2024-02-14T05:30:26;7.67;;;6.87;;
64887;SDS011;51386;53.082;8.816;2024-02-14T05:33:06;10.80;;;7.20;;
64887;SDS011;51386;53.082;8.816;2024-02-14T05:35:34;7.70;;;7.00;;
64887;SDS011;51386;53.082;8.816;2024-02-14T05:38:03;10.60;;;7.57;;
64887;SDS011;51386;53.082;8.816;2024-02-14T05:40:35;7.40;;;6.60;;
64887;SDS011;51386;53.082;8.816;2024-02-14T05:43:07;7.90;;;7.07;;
64887;SDS011;51386;53.082;8.816;2024-02-14T05:45:35;7.37;;;6.67;;
64887;SDS011;51386;53.082;8.816;2024-02-14T05:48:04;7.80;;;6.93;;
64887;SDS011;51386;53.082;8.816;2024-02-14T05:50:33;7.10;;;6.50;;
64887;SDS011;51386;53.082;8.816;2024-02-14T05:53:02;7.37;;;6.63;;
64887;SDS011;51386;53.082;8.816;2024-02-14T05:55:31;7.50;;;6.80;;
64887;SDS011;51386;53.082;8.816;2024-02-14T05:58:01;7.80;;;7.03;;
64887;SDS011;51386;53.082;8.816;2024-02-14T06:00:30;8.80;;;7.40;;
64887;SDS011;51386;53.082;8.816;2024-02-14T06:02:58;7.73;;;7.00;;
64887;SDS011;51386;53.082;8.816;2024-02-14T06:05:27;8.00;;;7.30;;
64887;SDS011;51386;53.082;8.816;2024-02-14T06:07:55;8.37;;;7.57;;
64887;SDS011;51386;53.082;8.816;2024-02-14T06:10:24;8.27;;;7.57;;
64887;SDS011;51386;53.082;8.816;2024-02-14T06:12:53;8.70;;;7.97;;
64887;SDS011;51386;53.082;8.816;2024-02-14T06:15:21;7.67;;;6.97;;
64887;SDS011;51386;53.082;8.816;2024-02-14T06:17:49;8.43;;;7.73;;
64887;SDS011;51386;53.082;8.816;2024-02-14T06:20:18;9.30;;;8.40;;
64887;SDS011;51386;53.082;8.816;2024-02-14T06:22:46;8.90;;;8.00;;
64887;SDS011;51386;53.082;8.816;2024-02-14T06:25:27;9.10;;;8.20;;
64887;SDS011;51386;53.082;8.816;2024-02-14T06:27:59;9.03;;;8.23;;
64887;SDS011;51386;53.082;8.816;2024-02-14T06:30:28;8.70;;;7.90;;
64887;SDS011;51386;53.082;8.816;2024-02-14T06:32:59;8.23;;;7.43;;
64887;SDS011;51386;53.082;8.816;2024-02-14T06:35:29;9.37;;;8.50;;
64887;SDS011;51386;53.082;8.816;2024-02-14T06:37:58;8.27;;;7.47;;
64887;SDS011;51386;53.082;8.816;2024-02-14T06:40:30;8.27;;;7.57;;
64887;SDS011;51386;53.082;8.816;2024-02-14T06:42:59;9.53;;;8.70;;
64887;SDS011;51386;53.082;8.816;2024-02-14T06:45:29;10.00;;;9.00;;
64887;SDS011;51386;53.082;8.816;2024-02-14T06:48:07;10.17;;;9.13;;
64887;SDS011;51386;53.082;8.816;2024-02-14T06:50:36;8.80;;;8.00;;
64887;SDS011;51386;53.082;8.816;2024-02-14T06:53:05;9.07;;;8.17;;
64887;SDS011;51386;53.082;8.816;2024-02-14T06:55:34;10.80;;;9.43;;
64887;SDS011;51386;53.082;8.816;2024-02-14T06:58:02;9.97;;;8.97;;
64887;SDS011;51386;53.082;8.816;2024-02-14T07:00:32;10.33;;;9.43;;
64887;SDS011;51386;53.082;8.816;2024-02-14T07:03:02;9.40;;;8.50;;
64887;SDS011;51386;53.082;8.816;2024-02-14T07:05:31;9.00;;;8.20;;
64887;SDS011;51386;53.082;8.816;2024-02-14T07:07:59;9.30;;;8.40;;
64887;SDS011;51386;53.082;8.816;2024-02-14T07:10:28;9.10;;;8.27;;
64887;SDS011;51386;53.082;8.816;2024-02-14T07:12:56;11.33;;;8.93;;
64887;SDS011;51386;53.082;8.816;2024-02-14T07:15:25;8.50;;;7.70;;
64887;SDS011;51386;53.082;8.816;2024-02-14T07:17:56;9.23;;;8.43;;
64887;SDS011;51386;53.082;8.816;2024-02-14T07:20:26;9.10;;;8.30;;
64887;SDS011;51386;53.082;8.816;2024-02-14T07:22:55;9.70;;;8.80;;
64887;SDS011;51386;53.082;8.816;2024-02-14T07:25:24;9.00;;;8.20;;
64887;SDS011;51386;53.082;8.816;2024-02-14T07:27:52;8.30;;;7.60;;
64887;SDS011;51386;53.082;8.816;2024-02-14T07:30:21;8.77;;;7.97;;
64887;SDS011;51386;53.082;8.816;2024-02-14T07:32:53;8.70;;;7.57;;
64887;SDS011;51386;53.082;8.816;2024-02-14T07:35:21;8.33;;;7.53;;
64887;SDS011;51386;53.082;8.816;2024-02-14T07:37:50;7.83;;;7.20;;
64887;SDS011;51386;53.082;8.816;2024-02-14T07:40:20;8.10;;;7.30;;
64887;SDS011;51386;53.082;8.816;2024-02-14T07:43:06;8.60;;;7.80;;
64887;SDS011;51386;53.082;8.816;2024-02-14T07:45:34;8.00;;;7.20;;
64887;SDS011;51386;53.082;8.816;2024-02-14T07:48:03;10.27;;;9.23;;
64887;SDS011;51386;53.082;8.816;2024-02-14T07:50:33;7.77;;;7.03;;
64887;SDS011;51386;53.082;8.816;2024-02-14T07:53:02;7.80;;;7.10;;
64887;SDS011;51386;53.082;8.816;2024-02-14T07:55:30;7.73;;;7.00;;
64887;SDS011;51386;53.082;8.816;2024-02-14T07:57:59;8.07;;;7.37;;
64887;SDS011;51386;53.082;8.816;2024-02-14T08:00:28;7.63;;;6.87;;
64887;SDS011;51386;53.082;8.816;2024-02-14T08:02:56;7.40;;;6.70;;
64887;SDS011;51386;53.082;8.816;2024-02-14T08:05:25;6.93;;;6.30;;
64887;SDS011;51386;53.082;8.816;2024-02-14T08:07:53;7.00;;;6.30;;
64887;SDS011;51386;53.082;8.816;2024-02-14T08:10:22;7.13;;;6.43;;
64887;SDS011;51386;53.082;8.816;2024-02-14T08:12:50;6.87;;;6.27;;
64887;SDS011;51386;53.082;8.816;2024-02-14T08:15:19;6.60;;;6.00;;
64887;SDS011;51386;53.082;8.816;2024-02-14T08:17:47;6.40;;;5.90;;
64887;SDS011;51386;53.082;8.816;2024-02-14T08:20:22;6.50;;;5.90;;
64887;SDS011;51386;53.082;8.816;2024-02-14T08:23:02;7.20;;;6.50;;
64887;SDS011;51386;53.082;8.816;2024-02-14T08:25:31;6.47;;;5.97;;
64887;SDS011;51386;53.082;8.816;2024-02-14T08:27:59;5.50;;;5.10;;
64887;SDS011;51386;53.082;8.816;2024-02-14T08:30:28;5.27;;;4.83;;
64887;SDS011;51386;53.082;8.816;2024-02-14T08:33:08;5.23;;;4.83;;
64887;SDS011;51386;53.082;8.816;2024-02-14T08:35:38;4.87;;;4.43;;
64887;SDS011;51386;53.082;8.816;2024-02-14T08:38:09;3.90;;;3.57;;
64887;SDS011;51386;53.082;8.816;2024-02-14T08:40:38;4.73;;;4.33;;
64887;SDS011;51386;53.082;8.816;2024-02-14T08:43:07;5.43;;;3.93;;
64887;SDS011;51386;53.082;8.816;2024-02-14T08:45:35;5.23;;;4.33;;
64887;SDS011;51386;53.082;8.816;2024-02-14T08:48:06;4.67;;;4.27;;
64887;SDS011;51386;53.082;8.816;2024-02-14T08:50:35;4.43;;;4.03;;
64887;SDS011;51386;53.082;8.816;2024-02-14T08:53:04;4.33;;;3.93;;
64887;SDS011;51386;53.082;8.816;2024-02-14T08:55:34;4.40;;;4.00;;
64887;SDS011;51386;53.082;8.816;2024-02-14T08:58:04;5.13;;;3.63;;
64887;SDS011;51386;53.082;8.816;2024-02-14T09:00:32;5.07;;;3.87;;
64887;SDS011;51386;53.082;8.816;2024-02-14T09:03:03;4.50;;;4.20;;
64887;SDS011;51386;53.082;8.816;2024-02-14T09:05:32;4.90;;;4.30;;
64887;SDS011;51386;53.082;8.816;2024-02-14T09:08:00;4.97;;;4.57;;
64887;SDS011;51386;53.082;8.816;2024-02-14T09:10:29;6.13;;;5.47;;
64887;SDS011;51386;53.082;8.816;2024-02-14T09:12:57;4.63;;;4.23;;
64887;SDS011;51386;53.082;8.816;2024-02-14T09:15:26;6.33;;;5.53;;
64887;SDS011;51386;53.082;8.816;2024-02-14T09:17:54;4.87;;;4.47;;
64887;SDS011;51386;53.082;8.816;2024-02-14T09:20:25;5.70;;;5.20;;
64887;SDS011;51386;53.082;8.816;2024-02-14T09:22:54;6.07;;;5.50;;
64887;SDS011;51386;53.082;8.816;2024-02-14T09:25:24;5.10;;;4.60;;
64887;SDS011;51386;53.082;8.816;2024-02-14T09:27:53;5.57;;;5.07;;
64887;SDS011;51386;53.082;8.816;2024-02-14T09:30:21;6.67;;;5.00;;
64887;SDS011;51386;53.082;8.816;2024-02-14T09:33:03;6.17;;;5.43;;
64887;SDS011;51386;53.082;8.816;2024-02-14T09:35:33;5.50;;;5.00;;
64887;SDS011;51386;53.082;8.816;2024-02-14T09:38:03;6.27;;;5.67;;
64887;SDS011;51386;53.082;8.816;2024-02-14T09:40:36;6.77;;;6.17;;
64887;SDS011;51386;53.082;8.816;2024-02-14T09:43:05;6.43;;;5.83;;
64887;SDS011;51386;53.082;8.816;2024-02-14T09:45:55;6.17;;;5.67;;
64887;SDS011;51386;53.082;8.816;2024-02-14T09:48:23;7.23;;;6.53;;
64887;SDS011;51386;53.082;8.816;2024-02-14T09:50:55;7.27;;;6.57;;
64887;SDS011;51386;53.082;8.816;2024-02-14T09:53:25;7.13;;;6.50;;
64887;SDS011;51386;53.082;8.816;2024-02-14T09:55:57;6.70;;;6.20;;
64887;SDS011;51386;53.082;8.816;2024-02-14T09:58:27;7.77;;;7.07;;
64887;SDS011;51386;53.082;8.816;2024-02-14T10:00:56;7.67;;;6.87;;
64887;SDS011;51386;53.082;8.816;2024-02-14T10:03:25;6.83;;;6.23;;
64887;SDS011;51386;53.082;8.816;2024-02-14T10:05:54;8.53;;;7.73;;
64887;SDS011;51386;53.082;8.816;2024-02-14T10:08:22;7.70;;;7.00;;
64887;SDS011;51386;53.082;8.816;2024-02-14T10:10:51;8.20;;;7.50;;
64887;SDS011;51386;53.082;8.816;2024-02-14T10:13:23;9.03;;;7.77;;
64887;SDS011;51386;53.082;8.816;2024-02-14T10:15:56;8.57;;;7.63;;
64887;SDS011;51386;53.082;8.816;2024-02-14T10:18:25;8.27;;;7.47;;
64887;SDS011;51386;53.082;8.816;2024-02-14T10:20:55;8.07;;;7.07;;
64887;SDS011;51386;53.082;8.816;2024-02-14T10:23:24;8.03;;;7.23;;
64887;SDS011;51386;53.082;8.816;2024-02-14T10:25:55;8.33;;;7.53;;
64887;SDS011;51386;53.082;8.816;2024-02-14T10:28:25;8.10;;;6.97;;
64887;SDS011;51386;53.082;8.816;2024-02-14T10:31:02;7.97;;;7.27;;
64887;SDS011;51386;53.082;8.816;2024-02-14T10:33:33;7.63;;;6.93;;
64887;SDS011;51386;53.082;8.816;2024-02-14T10:36:02;8.53;;;7.47;;
64887;SDS011;51386;53.082;8.816;2024-02-14T10:38:35;7.30;;;6.70;;
64887;SDS011;51386;53.082;8.816;2024-02-14T10:41:06;9.07;;;7.90;;
64887;SDS011;51386;53.082;8.816;2024-02-14T10:43:36;7.83;;;7.13;;
64887;SDS011;51386;53.082;8.816;2024-02-14T10:46:08;7.23;;;6.63;;
64887;SDS011;51386;53.082;8.816;2024-02-14T10:49:04;8.20;;;7.33;;
64887;SDS011;51386;53.082;8.816;2024-02-14T10:51:35;8.03;;;7.23;;
64887;SDS011;51386;53.082;8.816;2024-02-14T10:54:12;7.67;;;6.97;;
64887;SDS011;51386;53.082;8.816;2024-02-14T10:56:45;8.37;;;7.63;;
64887;SDS011;51386;53.082;8.816;2024-02-14T10:59:19;8.30;;;7.50;;
64887;SDS011;51386;53.082;8.816;2024-02-14T11:01:53;7.93;;;7.17;;
64887;SDS011;51386;53.082;8.816;2024-02-14T11:04:24;7.73;;;7.03;;
64887;SDS011;51386;53.082;8.816;2024-02-14T11:06:53;8.57;;;7.77;;
64887;SDS011;51386;53.082;8.816;2024-02-14T11:09:31;8.60;;;7.60;;
64887;SDS011;51386;53.082;8.816;2024-02-14T11:12:07;7.63;;;6.93;;
64887;SDS011;51386;53.082;8.816;2024-02-14T11:14:37;8.30;;;7.30;;
64887;SDS011;51386;53.082;8.816;2024-02-14T11:17:14;8.80;;;6.80;;
64887;SDS011;51386;53.082;8.816;2024-02-14T11:19:45;7.73;;;6.97;;
64887;SDS011;51386;53.082;8.816;2024-02-14T11:22:18;8.20;;;6.90;;
64887;SDS011;51386;53.082;8.816;2024-02-14T11:24:48;8.90;;;7.47;;
64887;SDS011;51386;53.082;8.816;2024-02-14T11:27:20;8.73;;;7.23;;
64887;SDS011;51386;53.082;8.816;2024-02-14T11:30:00;7.63;;;6.80;;
64887;SDS011;51386;53.082;8.816;2024-02-14T11:32:29;8.17;;;7.17;;
64887;SDS011;51386;53.082;8.816;2024-02-14T11:34:59;7.27;;;6.57;;
64887;SDS011;51386;53.082;8.816;2024-02-14T11:37:29;7.20;;;6.50;;
64887;SDS011;51386;53.082;8.816;2024-02-14T11:39:59;16.70;;;13.57;;
64887;SDS011;51386;53.082;8.816;2024-02-14T11:42:29;8.70;;;6.97;;
64887;SDS011;51386;53.082;8.816;2024-02-14T11:44:58;8.20;;;7.20;;
64887;SDS011;51386;53.082;8.816;2024-02-14T11:47:27;7.00;;;6.20;;
64887;SDS011;51386;53.082;8.816;2024-02-14T11:49:55;7.20;;;6.60;;
64887;SDS011;51386;53.082;8.816;2024-02-14T11:52:26;7.07;;;6.07;;
64887;SDS011;51386;53.082;8.816;2024-02-14T11:54:54;8.10;;;6.67;;
64887;SDS011;51386;53.082;8.816;2024-02-14T11:57:25;7.07;;;6.40;;
64887;SDS011;51386;53.082;8.816;2024-02-14T11:59:54;6.67;;;6.07;;
64887;SDS011;51386;53.082;8.816;2024-02-14T12:02:25;6.43;;;5.83;;
64887;SDS011;51386;53.082;8.816;2024-02-14T12:04:54;6.87;;;6.20;;
64887;SDS011;51386;53.082;8.816;2024-02-14T12:07:23;7.33;;;6.57;;
64887;SDS011;51386;53.082;8.816;2024-02-14T12:09:54;6.60;;;6.00;;
64887;SDS011;51386;53.082;8.816;2024-02-14T12:12:23;9.47;;;6.43;;
64887;SDS011;51386;53.082;8.816;2024-02-14T12:14:52;6.17;;;5.57;;
64887;SDS011;51386;53.082;8.816;2024-02-14T12:17:20;6.43;;;5.43;;
64887;SDS011;51386;53.082;8.816;2024-02-14T12:19:52;6.20;;;5.60;;
64887;SDS011;51386;53.082;8.816;2024-02-14T12:22:21;7.53;;;6.73;;
64887;SDS011;51386;53.082;8.816;2024-02-14T12:24:49;5.60;;;5.20;;
64887;SDS011;51386;53.082;8.816;2024-02-14T12:27:19;5.37;;;4.97;;
64887;SDS011;51386;53.082;8.816;2024-02-14T12:29:48;5.30;;;4.80;;
64887;SDS011;51386;53.082;8.816;2024-02-14T12:32:19;5.80;;;4.77;;
64887;SDS011;51386;53.082;8.816;2024-02-14T12:34:47;5.47;;;4.97;;
64887;SDS011;51386;53.082;8.816;2024-02-14T12:37:16;5.63;;;5.03;;
64887;SDS011;51386;53.082;8.816;2024-02-14T12:39:45;7.10;;;6.40;;
64887;SDS011;51386;53.082;8.816;2024-02-14T12:42:13;5.53;;;4.97;;
64887;SDS011;51386;53.082;8.816;2024-02-14T12:44:42;8.30;;;5.30;;
64887;SDS011;51386;53.082;8.816;2024-02-14T12:47:11;5.40;;;4.70;;
64887;SDS011;51386;53.082;8.816;2024-02-14T12:49:39;6.03;;;4.97;;
64887;SDS011;51386;53.082;8.816;2024-02-14T12:52:08;5.43;;;4.93;;
64887;SDS011;51386;53.082;8.816;2024-02-14T12:54:36;5.23;;;4.73;;
64887;SDS011;51386;53.082;8.816;2024-02-14T12:57:05;5.13;;;4.73;;
64887;SDS011;51386;53.082;8.816;2024-02-14T12:59:34;5.50;;;5.00;;
64887;SDS011;51386;53.082;8.816;2024-02-14T13:02:02;5.87;;;5.37;;
64887;SDS011;51386;53.082;8.816;2024-02-14T13:04:34;5.20;;;4.80;;
64887;SDS011;51386;53.082;8.816;2024-02-14T13:07:02;6.00;;;5.50;;
64887;SDS011;51386;53.082;8.816;2024-02-14T13:09:31;5.60;;;5.10;;
64887;SDS011;51386;53.082;8.816;2024-02-14T13:11:59;5.73;;;5.07;;
64887;SDS011;51386;53.082;8.816;2024-02-14T13:14:28;5.80;;;5.30;;
64887;SDS011;51386;53.082;8.816;2024-02-14T13:16:59;5.17;;;4.77;;
64887;SDS011;51386;53.082;8.816;2024-02-14T13:19:28;5.80;;;5.00;;
64887;SDS011;51386;53.082;8.816;2024-02-14T13:21:57;5.43;;;5.03;;
64887;SDS011;51386;53.082;8.816;2024-02-14T13:24:25;5.10;;;4.60;;
64887;SDS011;51386;53.082;8.816;2024-02-14T13:26:53;5.30;;;4.80;;
64887;SDS011;51386;53.082;8.816;2024-02-14T13:29:22;9.33;;;8.50;;
64887;SDS011;51386;53.082;8.816;2024-02-14T13:31:51;5.20;;;4.53;;
64887;SDS011;51386;53.082;8.816;2024-02-14T13:34:20;6.57;;;4.17;;
64887;SDS011;51386;53.082;8.816;2024-02-14T13:36:49;5.60;;;5.10;;
64887;SDS011;51386;53.082;8.816;2024-02-14T13:39:17;5.20;;;4.80;;
64887;SDS011;51386;53.082;8.816;2024-02-14T13:41:46;5.03;;;4.33;;
64887;SDS011;51386;53.082;8.816;2024-02-14T13:44:15;5.60;;;4.67;;
64887;SDS011;51386;53.082;8.816;2024-02-14T13:46:44;5.17;;;4.67;;
64887;SDS011;51386;53.082;8.816;2024-02-14T13:49:13;5.30;;;4.50;;
64887;SDS011;51386;53.082;8.816;2024-02-14T13:51:45;5.20;;;4.70;;
64887;SDS011;51386;53.082;8.816;2024-02-14T13:54:14;5.47;;;4.97;;
64887;SDS011;51386;53.082;8.816;2024-02-14T13:56:43;5.27;;;4.87;;
64887;SDS011;51386;53.082;8.816;2024-02-14T13:59:12;6.50;;;5.07;;
64887;SDS011;51386;53.082;8.816;2024-02-14T14:01:40;4.90;;;4.50;;
64887;SDS011;51386;53.082;8.816;2024-02-14T14:04:09;5.50;;;5.00;;
64887;SDS011;51386;53.082;8.816;2024-02-14T14:06:38;6.90;;;5.00;;
64887;SDS011;51386;53.082;8.816;2024-02-14T14:09:06;5.70;;;5.20;;
64887;SDS011;51386;53.082;8.816;2024-02-14T14:11:36;6.10;;;5.40;;
64887;SDS011;51386;53.082;8.816;2024-02-14T14:14:05;5.70;;;5.00;;
64887;SDS011;51386;53.082;8.816;2024-02-14T14:16:35;6.57;;;5.93;;
64887;SDS011;51386;53.082;8.816;2024-02-14T14:19:04;6.73;;;5.17;;
64887;SDS011;51386;53.082;8.816;2024-02-14T14:21:32;5.70;;;5.20;;
64887;SDS011;51386;53.082;8.816;2024-02-14T14:24:03;6.17;;;5.57;;
64887;SDS011;51386;53.082;8.816;2024-02-14T14:26:32;6.33;;;5.73;;
64887;SDS011;51386;53.082;8.816;2024-02-14T14:29:01;6.13;;;5.10;;
64887;SDS011;51386;53.082;8.816;2024-02-14T14:31:30;6.30;;;5.23;;
64887;SDS011;51386;53.082;8.816;2024-02-14T14:33:58;6.60;;;5.17;;
64887;SDS011;51386;53.082;8.816;2024-02-14T14:36:27;6.07;;;5.57;;
64887;SDS011;51386;53.082;8.816;2024-02-14T14:38:55;6.60;;;6.00;;
64887;SDS011;51386;53.082;8.816;2024-02-14T14:41:24;5.90;;;5.40;;
64887;SDS011;51386;53.082;8.816;2024-02-14T14:43:52;9.63;;;5.00;;
64887;SDS011;51386;53.082;8.816;2024-02-14T14:46:21;5.50;;;5.00;;
64887;SDS011;51386;53.082;8.816;2024-02-14T14:48:49;5.60;;;4.90;;
64887;SDS011;51386;53.082;8.816;2024-02-14T14:51:18;5.33;;;4.83;;
64887;SDS011;51386;53.082;8.816;2024-02-14T14:53:47;5.40;;;5.00;;
64887;SDS011;51386;53.082;8.816;2024-02-14T14:56:16;6.20;;;5.43;;
64887;SDS011;51386;53.082;8.816;2024-02-14T14:58:45;6.07;;;5.00;;
64887;SDS011;51386;53.082;8.816;2024-02-14T15:01:13;4.97;;;4.57;;
64887;SDS011;51386;53.082;8.816;2024-02-14T15:03:41;4.87;;;4.40;;
64887;SDS011;51386;53.082;8.816;2024-02-14T15:06:10;4.90;;;4.50;;
64887;SDS011;51386;53.082;8.816;2024-02-14T15:08:39;5.10;;;4.70;;